sensor_id;sensor_type;location;lat;lon;timestamp;temperature;humidity
36206;DHT22;22242;48.796;9.930;2023-09-08T00:01:04;14.90;99.90
36206;DHT22;22242;48.796;9.930;2023-09-08T00:03:31;14.80;99.90
36206;DHT22;22242;48.796;9.930;2023-09-08T00:05:58;14.80;99.90
36206;DHT22;22242;48.796;9.930;2023-09-08T00:08:25;14.80;99.90
36206;DHT22;22242;48.796;9.930;2023-09-08T00:10:53;14.80;99.90
36206;DHT22;22242;48.796;9.930;2023-09-08T00:13:20;14.80;99.90
36206;DHT22;22242;48.796;9.930;2023-09-08T00:15:47;14.60;99.90
36206;DHT22;22242;48.796;9.930;2023-09-08T00:18:14;14.60;99.90
36206;DHT22;22242;48.796;9.930;2023-09-08T00:20:42;14.60;99.90
36206;DHT22;22242;48.796;9.930;2023-09-08T00:23:08;14.70;99.90
36206;DHT22;22242;48.796;9.930;2023-09-08T00:25:36;14.60;99.90
36206;DHT22;22242;48.796;9.930;2023-09-08T00:28:04;14.60;99.90
36206;DHT22;22242;48.796;9.930;2023-09-08T00:30:32;14.60;99.90
36206;DHT22;22242;48.796;9.930;2023-09-08T00:32:59;14.60;99.90
36206;DHT22;22242;48.796;9.930;2023-09-08T00:35:38;14.50;99.90
36206;DHT22;22242;48.796;9.930;2023-09-08T00:38:06;14.50;99.90
36206;DHT22;22242;48.796;9.930;2023-09-08T00:40:32;14.50;99.90
36206;DHT22;22242;48.796;9.930;2023-09-08T00:43:00;14.40;99.90
36206;DHT22;22242;48.796;9.930;2023-09-08T00:45:29;14.30;99.90
36206;DHT22;22242;48.796;9.930;2023-09-08T00:47:57;14.40;99.90
36206;DHT22;22242;48.796;9.930;2023-09-08T00:50:24;14.50;99.90
36206;DHT22;22242;48.796;9.930;2023-09-08T00:52:51;14.30;99.90
36206;DHT22;22242;48.796;9.930;2023-09-08T00:55:18;14.40;99.90
36206;DHT22;22242;48.796;9.930;2023-09-08T00:57:45;14.30;99.90
36206;DHT22;22242;48.796;9.930;2023-09-08T01:00:13;14.40;99.90
36206;DHT22;22242;48.796;9.930;2023-09-08T01:02:42;14.30;99.90
36206;DHT22;22242;48.796;9.930;2023-09-08T01:05:09;14.20;99.90
36206;DHT22;22242;48.796;9.930;2023-09-08T01:07:37;14.20;99.90
36206;DHT22;22242;48.796;9.930;2023-09-08T01:10:05;14.10;99.90
36206;DHT22;22242;48.796;9.930;2023-09-08T01:12:33;14.10;99.90
36206;DHT22;22242;48.796;9.930;2023-09-08T01:15:01;14.10;99.90
36206;DHT22;22242;48.796;9.930;2023-09-08T01:17:27;14.00;99.90
36206;DHT22;22242;48.796;9.930;2023-09-08T01:19:57;13.90;99.90
36206;DHT22;22242;48.796;9.930;2023-09-08T01:22:43;14.00;99.90
36206;DHT22;22242;48.796;9.930;2023-09-08T01:25:18;13.90;99.90
36206;DHT22;22242;48.796;9.930;2023-09-08T01:27:47;13.90;99.90
36206;DHT22;22242;48.796;9.930;2023-09-08T01:30:16;13.90;99.90
36206;DHT22;22242;48.796;9.930;2023-09-08T01:32:44;13.90;99.90
36206;DHT22;22242;48.796;9.930;2023-09-08T01:35:12;13.90;99.90
36206;DHT22;22242;48.796;9.930;2023-09-08T01:37:41;13.90;99.90
36206;DHT22;22242;48.796;9.930;2023-09-08T01:40:09;13.90;99.90
36206;DHT22;22242;48.796;9.930;2023-09-08T01:42:39;13.80;99.90
36206;DHT22;22242;48.796;9.930;2023-09-08T01:45:07;13.70;99.90
36206;DHT22;22242;48.796;9.930;2023-09-08T01:47:34;13.70;99.90
36206;DHT22;22242;48.796;9.930;2023-09-08T01:50:02;13.70;99.90
36206;DHT22;22242;48.796;9.930;2023-09-08T01:52:29;13.70;99.90
36206;DHT22;22242;48.796;9.930;2023-09-08T01:54:56;13.70;99.90
36206;DHT22;22242;48.796;9.930;2023-09-08T01:57:23;13.80;99.90
36206;DHT22;22242;48.796;9.930;2023-09-08T01:59:51;13.70;99.90
36206;DHT22;22242;48.796;9.930;2023-09-08T02:02:18;13.70;99.90
36206;DHT22;22242;48.796;9.930;2023-09-08T02:04:46;13.80;99.90
36206;DHT22;22242;48.796;9.930;2023-09-08T02:07:14;13.70;99.90
36206;DHT22;22242;48.796;9.930;2023-09-08T02:09:41;13.80;99.90
36206;DHT22;22242;48.796;9.930;2023-09-08T02:12:08;13.70;99.90
36206;DHT22;22242;48.796;9.930;2023-09-08T02:14:36;13.70;99.90
36206;DHT22;22242;48.796;9.930;2023-09-08T02:17:04;13.60;99.90
36206;DHT22;22242;48.796;9.930;2023-09-08T02:19:32;13.60;99.90
36206;DHT22;22242;48.796;9.930;2023-09-08T02:21:59;13.80;99.90
36206;DHT22;22242;48.796;9.930;2023-09-08T02:24:26;13.90;99.90
36206;DHT22;22242;48.796;9.930;2023-09-08T02:26:54;13.90;99.90
36206;DHT22;22242;48.796;9.930;2023-09-08T02:29:22;13.80;99.90
36206;DHT22;22242;48.796;9.930;2023-09-08T02:31:49;13.90;99.90
36206;DHT22;22242;48.796;9.930;2023-09-08T02:34:17;14.00;99.90
36206;DHT22;22242;48.796;9.930;2023-09-08T02:36:45;14.20;99.90
36206;DHT22;22242;48.796;9.930;2023-09-08T02:39:15;14.40;99.90
36206;DHT22;22242;48.796;9.930;2023-09-08T02:41:42;14.80;99.90
36206;DHT22;22242;48.796;9.930;2023-09-08T02:44:09;14.90;99.90
36206;DHT22;22242;48.796;9.930;2023-09-08T02:46:36;14.90;99.90
36206;DHT22;22242;48.796;9.930;2023-09-08T02:49:03;14.90;99.90
36206;DHT22;22242;48.796;9.930;2023-09-08T02:51:31;15.20;99.90
36206;DHT22;22242;48.796;9.930;2023-09-08T02:53:58;15.30;99.90
36206;DHT22;22242;48.796;9.930;2023-09-08T02:56:25;15.30;99.90
36206;DHT22;22242;48.796;9.930;2023-09-08T02:58:52;15.30;99.90
36206;DHT22;22242;48.796;9.930;2023-09-08T03:01:20;15.20;99.90
36206;DHT22;22242;48.796;9.930;2023-09-08T03:03:48;15.10;99.90
36206;DHT22;22242;48.796;9.930;2023-09-08T03:06:18;15.00;99.90
36206;DHT22;22242;48.796;9.930;2023-09-08T03:08:47;15.00;99.90
36206;DHT22;22242;48.796;9.930;2023-09-08T03:11:14;15.10;99.90
36206;DHT22;22242;48.796;9.930;2023-09-08T03:13:41;15.20;99.90
36206;DHT22;22242;48.796;9.930;2023-09-08T03:16:09;15.40;99.90
36206;DHT22;22242;48.796;9.930;2023-09-08T03:18:37;15.50;99.90
36206;DHT22;22242;48.796;9.930;2023-09-08T03:21:04;15.60;99.90
36206;DHT22;22242;48.796;9.930;2023-09-08T03:23:37;15.90;99.90
36206;DHT22;22242;48.796;9.930;2023-09-08T03:26:06;16.10;99.90
36206;DHT22;22242;48.796;9.930;2023-09-08T03:28:34;16.10;99.90
36206;DHT22;22242;48.796;9.930;2023-09-08T03:31:02;16.20;99.90
36206;DHT22;22242;48.796;9.930;2023-09-08T03:33:31;16.30;99.90
36206;DHT22;22242;48.796;9.930;2023-09-08T03:35:59;16.30;99.90
36206;DHT22;22242;48.796;9.930;2023-09-08T03:38:27;16.20;99.90
36206;DHT22;22242;48.796;9.930;2023-09-08T03:40:54;16.30;99.90
36206;DHT22;22242;48.796;9.930;2023-09-08T03:43:23;16.30;99.90
36206;DHT22;22242;48.796;9.930;2023-09-08T03:45:50;16.30;99.90
36206;DHT22;22242;48.796;9.930;2023-09-08T03:48:17;16.30;99.90
36206;DHT22;22242;48.796;9.930;2023-09-08T03:50:44;16.30;99.90
36206;DHT22;22242;48.796;9.930;2023-09-08T03:53:12;16.70;99.90
36206;DHT22;22242;48.796;9.930;2023-09-08T03:55:39;16.70;99.90
36206;DHT22;22242;48.796;9.930;2023-09-08T03:58:06;16.70;99.90
36206;DHT22;22242;48.796;9.930;2023-09-08T04:00:34;16.70;99.90
36206;DHT22;22242;48.796;9.930;2023-09-08T04:03:01;16.80;99.90
36206;DHT22;22242;48.796;9.930;2023-09-08T04:05:29;16.70;99.90
36206;DHT22;22242;48.796;9.930;2023-09-08T04:07:56;16.50;99.90
36206;DHT22;22242;48.796;9.930;2023-09-08T04:10:23;16.70;99.90
36206;DHT22;22242;48.796;9.930;2023-09-08T04:12:50;16.40;99.90
36206;DHT22;22242;48.796;9.930;2023-09-08T04:15:17;16.30;99.90
36206;DHT22;22242;48.796;9.930;2023-09-08T04:17:45;16.00;99.90
36206;DHT22;22242;48.796;9.930;2023-09-08T04:20:12;15.90;99.90
36206;DHT22;22242;48.796;9.930;2023-09-08T04:22:41;15.70;99.90
36206;DHT22;22242;48.796;9.930;2023-09-08T04:25:08;15.40;99.90
36206;DHT22;22242;48.796;9.930;2023-09-08T04:27:37;15.30;99.90
36206;DHT22;22242;48.796;9.930;2023-09-08T04:30:04;15.20;99.90
36206;DHT22;22242;48.796;9.930;2023-09-08T04:32:32;15.50;99.90
36206;DHT22;22242;48.796;9.930;2023-09-08T04:35:00;15.80;99.90
36206;DHT22;22242;48.796;9.930;2023-09-08T04:37:27;16.10;99.90
36206;DHT22;22242;48.796;9.930;2023-09-08T04:39:56;16.20;99.90
36206;DHT22;22242;48.796;9.930;2023-09-08T04:42:23;16.10;99.90
36206;DHT22;22242;48.796;9.930;2023-09-08T04:44:51;16.10;99.90
36206;DHT22;22242;48.796;9.930;2023-09-08T04:47:18;15.90;99.90
36206;DHT22;22242;48.796;9.930;2023-09-08T04:49:46;15.80;99.90
36206;DHT22;22242;48.796;9.930;2023-09-08T04:52:15;15.90;99.90
36206;DHT22;22242;48.796;9.930;2023-09-08T04:54:42;16.00;99.90
36206;DHT22;22242;48.796;9.930;2023-09-08T04:57:09;15.90;99.90
36206;DHT22;22242;48.796;9.930;2023-09-08T04:59:36;15.70;99.90
36206;DHT22;22242;48.796;9.930;2023-09-08T05:02:05;15.80;99.90
36206;DHT22;22242;48.796;9.930;2023-09-08T05:04:33;15.80;99.90
36206;DHT22;22242;48.796;9.930;2023-09-08T05:07:00;16.20;99.90
36206;DHT22;22242;48.796;9.930;2023-09-08T05:09:29;16.30;99.90
36206;DHT22;22242;48.796;9.930;2023-09-08T05:11:56;16.30;99.90
36206;DHT22;22242;48.796;9.930;2023-09-08T05:14:25;16.00;99.90
36206;DHT22;22242;48.796;9.930;2023-09-08T05:16:53;15.80;99.90
36206;DHT22;22242;48.796;9.930;2023-09-08T05:19:24;15.70;99.90
36206;DHT22;22242;48.796;9.930;2023-09-08T05:21:53;15.90;99.90
36206;DHT22;22242;48.796;9.930;2023-09-08T05:24:20;16.00;99.90
36206;DHT22;22242;48.796;9.930;2023-09-08T05:26:49;16.30;99.90
36206;DHT22;22242;48.796;9.930;2023-09-08T05:29:16;16.40;99.90
36206;DHT22;22242;48.796;9.930;2023-09-08T05:31:44;16.50;99.90
36206;DHT22;22242;48.796;9.930;2023-09-08T05:34:11;16.60;99.90
36206;DHT22;22242;48.796;9.930;2023-09-08T05:36:38;16.50;99.90
36206;DHT22;22242;48.796;9.930;2023-09-08T05:39:07;16.50;99.90
36206;DHT22;22242;48.796;9.930;2023-09-08T05:41:34;16.50;99.90
36206;DHT22;22242;48.796;9.930;2023-09-08T05:44:04;16.50;99.90
36206;DHT22;22242;48.796;9.930;2023-09-08T05:46:31;16.60;99.90
36206;DHT22;22242;48.796;9.930;2023-09-08T05:48:59;16.70;99.90
36206;DHT22;22242;48.796;9.930;2023-09-08T05:51:25;16.80;99.90
36206;DHT22;22242;48.796;9.930;2023-09-08T05:53:55;17.00;99.90
36206;DHT22;22242;48.796;9.930;2023-09-08T05:56:24;17.10;99.90
36206;DHT22;22242;48.796;9.930;2023-09-08T05:58:51;17.30;99.90
36206;DHT22;22242;48.796;9.930;2023-09-08T06:01:20;17.40;99.90
36206;DHT22;22242;48.796;9.930;2023-09-08T06:03:47;17.50;99.90
36206;DHT22;22242;48.796;9.930;2023-09-08T06:06:14;17.60;99.90
36206;DHT22;22242;48.796;9.930;2023-09-08T06:08:41;17.70;99.90
36206;DHT22;22242;48.796;9.930;2023-09-08T06:11:08;17.70;99.90
36206;DHT22;22242;48.796;9.930;2023-09-08T06:13:35;17.80;99.90
36206;DHT22;22242;48.796;9.930;2023-09-08T06:16:03;17.70;99.90
36206;DHT22;22242;48.796;9.930;2023-09-08T06:18:31;17.70;99.90
36206;DHT22;22242;48.796;9.930;2023-09-08T06:21:07;17.70;99.90
36206;DHT22;22242;48.796;9.930;2023-09-08T06:23:35;17.70;99.90
36206;DHT22;22242;48.796;9.930;2023-09-08T06:26:02;17.50;99.90
36206;DHT22;22242;48.796;9.930;2023-09-08T06:28:31;17.50;99.90
36206;DHT22;22242;48.796;9.930;2023-09-08T06:30:58;17.70;99.90
36206;DHT22;22242;48.796;9.930;2023-09-08T06:33:26;17.90;99.90
36206;DHT22;22242;48.796;9.930;2023-09-08T06:38:24;18.30;99.90
36206;DHT22;22242;48.796;9.930;2023-09-08T06:40:52;18.70;99.90
36206;DHT22;22242;48.796;9.930;2023-09-08T06:43:20;18.70;99.90
36206;DHT22;22242;48.796;9.930;2023-09-08T06:45:57;18.60;99.90
36206;DHT22;22242;48.796;9.930;2023-09-08T06:48:24;18.70;99.90
36206;DHT22;22242;48.796;9.930;2023-09-08T06:50:53;18.70;99.90
36206;DHT22;22242;48.796;9.930;2023-09-08T06:53:25;18.60;99.90
36206;DHT22;22242;48.796;9.930;2023-09-08T06:55:52;18.90;99.90
36206;DHT22;22242;48.796;9.930;2023-09-08T06:58:19;19.10;99.90
36206;DHT22;22242;48.796;9.930;2023-09-08T07:00:47;19.10;99.90
36206;DHT22;22242;48.796;9.930;2023-09-08T07:03:15;19.00;99.90
36206;DHT22;22242;48.796;9.930;2023-09-08T07:05:44;19.70;99.90
36206;DHT22;22242;48.796;9.930;2023-09-08T07:08:11;19.60;99.90
36206;DHT22;22242;48.796;9.930;2023-09-08T07:10:40;19.90;99.90
36206;DHT22;22242;48.796;9.930;2023-09-08T07:13:07;20.20;99.90
36206;DHT22;22242;48.796;9.930;2023-09-08T07:15:34;20.70;99.90
36206;DHT22;22242;48.796;9.930;2023-09-08T07:18:01;20.70;99.90
36206;DHT22;22242;48.796;9.930;2023-09-08T07:20:28;22.10;99.90
36206;DHT22;22242;48.796;9.930;2023-09-08T07:22:56;22.40;99.90
36206;DHT22;22242;48.796;9.930;2023-09-08T07:25:24;22.90;99.90
36206;DHT22;22242;48.796;9.930;2023-09-08T07:27:52;23.00;99.90
36206;DHT22;22242;48.796;9.930;2023-09-08T07:30:21;22.80;99.90
36206;DHT22;22242;48.796;9.930;2023-09-08T07:32:48;22.70;99.90
36206;DHT22;22242;48.796;9.930;2023-09-08T07:35:16;24.30;99.90
36206;DHT22;22242;48.796;9.930;2023-09-08T07:37:46;24.60;99.90
36206;DHT22;22242;48.796;9.930;2023-09-08T07:40:13;24.70;99.90
36206;DHT22;22242;48.796;9.930;2023-09-08T07:42:41;24.90;99.90
36206;DHT22;22242;48.796;9.930;2023-09-08T07:45:09;26.30;99.90
36206;DHT22;22242;48.796;9.930;2023-09-08T07:47:36;27.80;97.80
36206;DHT22;22242;48.796;9.930;2023-09-08T07:50:17;28.90;94.40
36206;DHT22;22242;48.796;9.930;2023-09-08T07:52:45;29.10;91.90
36206;DHT22;22242;48.796;9.930;2023-09-08T07:55:12;28.90;91.90
36206;DHT22;22242;48.796;9.930;2023-09-08T07:57:40;29.00;91.20
36206;DHT22;22242;48.796;9.930;2023-09-08T08:00:09;28.10;92.70
36206;DHT22;22242;48.796;9.930;2023-09-08T08:02:42;27.70;93.90
36206;DHT22;22242;48.796;9.930;2023-09-08T08:05:10;27.20;94.50
36206;DHT22;22242;48.796;9.930;2023-09-08T08:07:38;28.10;94.60
36206;DHT22;22242;48.796;9.930;2023-09-08T08:10:06;31.10;88.20
36206;DHT22;22242;48.796;9.930;2023-09-08T08:12:33;31.60;85.80
36206;DHT22;22242;48.796;9.930;2023-09-08T08:15:00;31.80;83.40
36206;DHT22;22242;48.796;9.930;2023-09-08T08:17:28;31.40;83.50
36206;DHT22;22242;48.796;9.930;2023-09-08T08:19:56;31.40;82.40
36206;DHT22;22242;48.796;9.930;2023-09-08T08:22:24;31.80;80.30
36206;DHT22;22242;48.796;9.930;2023-09-08T08:24:51;32.80;75.30
36206;DHT22;22242;48.796;9.930;2023-09-08T08:27:18;31.80;77.60
36206;DHT22;22242;48.796;9.930;2023-09-08T08:29:46;31.50;75.90
36206;DHT22;22242;48.796;9.930;2023-09-08T08:32:13;32.10;76.20
36206;DHT22;22242;48.796;9.930;2023-09-08T08:34:41;32.70;71.00
36206;DHT22;22242;48.796;9.930;2023-09-08T08:37:09;33.00;70.60
36206;DHT22;22242;48.796;9.930;2023-09-08T08:39:36;32.80;73.90
36206;DHT22;22242;48.796;9.930;2023-09-08T08:42:07;32.20;72.70
36206;DHT22;22242;48.796;9.930;2023-09-08T08:44:34;31.10;70.00
36206;DHT22;22242;48.796;9.930;2023-09-08T08:47:02;30.60;73.70
36206;DHT22;22242;48.796;9.930;2023-09-08T08:49:31;33.60;65.80
36206;DHT22;22242;48.796;9.930;2023-09-08T08:52:00;32.30;69.00
36206;DHT22;22242;48.796;9.930;2023-09-08T08:54:29;32.40;71.70
36206;DHT22;22242;48.796;9.930;2023-09-08T08:56:57;33.20;69.90
36206;DHT22;22242;48.796;9.930;2023-09-08T08:59:24;32.90;68.40
36206;DHT22;22242;48.796;9.930;2023-09-08T09:01:52;33.40;66.80
36206;DHT22;22242;48.796;9.930;2023-09-08T09:04:19;34.60;64.90
36206;DHT22;22242;48.796;9.930;2023-09-08T09:06:47;33.80;65.70
36206;DHT22;22242;48.796;9.930;2023-09-08T09:09:15;32.30;71.10
36206;DHT22;22242;48.796;9.930;2023-09-08T09:11:43;33.30;68.30
36206;DHT22;22242;48.796;9.930;2023-09-08T09:14:11;33.00;67.70
36206;DHT22;22242;48.796;9.930;2023-09-08T09:16:39;35.90;61.80
36206;DHT22;22242;48.796;9.930;2023-09-08T09:19:07;37.00;59.50
36206;DHT22;22242;48.796;9.930;2023-09-08T09:21:49;36.60;59.40
36206;DHT22;22242;48.796;9.930;2023-09-08T09:24:28;34.80;59.40
36206;DHT22;22242;48.796;9.930;2023-09-08T09:26:56;34.50;62.30
36206;DHT22;22242;48.796;9.930;2023-09-08T09:29:23;33.50;64.70
36206;DHT22;22242;48.796;9.930;2023-09-08T09:31:51;33.40;62.90
36206;DHT22;22242;48.796;9.930;2023-09-08T09:34:20;32.60;68.50
36206;DHT22;22242;48.796;9.930;2023-09-08T09:36:48;33.50;68.20
36206;DHT22;22242;48.796;9.930;2023-09-08T09:39:18;32.70;68.30
36206;DHT22;22242;48.796;9.930;2023-09-08T09:41:46;31.60;67.50
36206;DHT22;22242;48.796;9.930;2023-09-08T09:44:13;32.40;66.80
36206;DHT22;22242;48.796;9.930;2023-09-08T09:46:43;31.90;69.10
36206;DHT22;22242;48.796;9.930;2023-09-08T09:49:11;32.40;71.00
36206;DHT22;22242;48.796;9.930;2023-09-08T09:51:43;33.30;69.60
36206;DHT22;22242;48.796;9.930;2023-09-08T09:54:11;31.80;73.20
36206;DHT22;22242;48.796;9.930;2023-09-08T09:56:40;32.90;70.80
36206;DHT22;22242;48.796;9.930;2023-09-08T09:59:08;31.80;73.40
36206;DHT22;22242;48.796;9.930;2023-09-08T10:01:36;31.80;73.30
36206;DHT22;22242;48.796;9.930;2023-09-08T10:04:04;32.20;73.00
36206;DHT22;22242;48.796;9.930;2023-09-08T10:06:32;32.10;70.00
36206;DHT22;22242;48.796;9.930;2023-09-08T10:09:00;32.30;67.70
36206;DHT22;22242;48.796;9.930;2023-09-08T10:11:34;32.60;72.70
36206;DHT22;22242;48.796;9.930;2023-09-08T10:14:03;31.80;74.10
36206;DHT22;22242;48.796;9.930;2023-09-08T10:16:34;31.80;75.50
36206;DHT22;22242;48.796;9.930;2023-09-08T10:19:07;32.70;71.50
36206;DHT22;22242;48.796;9.930;2023-09-08T10:21:38;32.20;72.80
36206;DHT22;22242;48.796;9.930;2023-09-08T10:24:13;32.10;75.20
36206;DHT22;22242;48.796;9.930;2023-09-08T10:26:44;32.60;73.90
36206;DHT22;22242;48.796;9.930;2023-09-08T10:29:13;32.10;77.30
36206;DHT22;22242;48.796;9.930;2023-09-08T10:31:42;31.30;80.60
36206;DHT22;22242;48.796;9.930;2023-09-08T10:34:10;30.90;79.70
36206;DHT22;22242;48.796;9.930;2023-09-08T10:36:37;31.50;75.10
36206;DHT22;22242;48.796;9.930;2023-09-08T10:39:29;31.90;76.30
36206;DHT22;22242;48.796;9.930;2023-09-08T10:42:19;32.20;78.00
36206;DHT22;22242;48.796;9.930;2023-09-08T10:45:00;31.20;77.50
36206;DHT22;22242;48.796;9.930;2023-09-08T10:47:32;31.40;80.20
36206;DHT22;22242;48.796;9.930;2023-09-08T10:50:00;31.70;78.00
36206;DHT22;22242;48.796;9.930;2023-09-08T10:52:26;33.00;71.80
36206;DHT22;22242;48.796;9.930;2023-09-08T10:54:55;32.70;68.00
36206;DHT22;22242;48.796;9.930;2023-09-08T10:57:23;31.20;74.70
36206;DHT22;22242;48.796;9.930;2023-09-08T10:59:51;31.60;79.30
36206;DHT22;22242;48.796;9.930;2023-09-08T11:02:35;32.80;72.30
36206;DHT22;22242;48.796;9.930;2023-09-08T11:05:02;34.70;66.10
36206;DHT22;22242;48.796;9.930;2023-09-08T11:07:30;32.20;72.10
36206;DHT22;22242;48.796;9.930;2023-09-08T11:09:59;30.90;75.50
36206;DHT22;22242;48.796;9.930;2023-09-08T11:12:27;32.00;73.20
36206;DHT22;22242;48.796;9.930;2023-09-08T11:14:54;31.10;74.50
36206;DHT22;22242;48.796;9.930;2023-09-08T11:17:24;31.30;77.60
36206;DHT22;22242;48.796;9.930;2023-09-08T11:19:52;32.00;72.50
36206;DHT22;22242;48.796;9.930;2023-09-08T11:22:22;31.20;73.20
36206;DHT22;22242;48.796;9.930;2023-09-08T11:24:51;31.90;71.90
36206;DHT22;22242;48.796;9.930;2023-09-08T11:27:18;31.70;73.50
36206;DHT22;22242;48.796;9.930;2023-09-08T11:29:45;31.20;76.50
36206;DHT22;22242;48.796;9.930;2023-09-08T11:32:12;30.70;79.30
36206;DHT22;22242;48.796;9.930;2023-09-08T11:34:40;31.10;76.30
36206;DHT22;22242;48.796;9.930;2023-09-08T11:37:09;31.50;78.80
36206;DHT22;22242;48.796;9.930;2023-09-08T11:39:39;31.40;77.20
36206;DHT22;22242;48.796;9.930;2023-09-08T11:42:07;31.70;72.90
36206;DHT22;22242;48.796;9.930;2023-09-08T11:44:35;30.90;75.50
36206;DHT22;22242;48.796;9.930;2023-09-08T11:47:02;30.40;80.50
36206;DHT22;22242;48.796;9.930;2023-09-08T11:49:34;30.00;77.30
36206;DHT22;22242;48.796;9.930;2023-09-08T11:52:01;29.30;80.10
36206;DHT22;22242;48.796;9.930;2023-09-08T11:54:31;29.10;81.30
36206;DHT22;22242;48.796;9.930;2023-09-08T11:56:59;29.10;87.00
36206;DHT22;22242;48.796;9.930;2023-09-08T11:59:27;28.70;83.60
36206;DHT22;22242;48.796;9.930;2023-09-08T12:01:55;28.80;84.10
36206;DHT22;22242;48.796;9.930;2023-09-08T12:04:23;28.70;85.90
36206;DHT22;22242;48.796;9.930;2023-09-08T12:06:51;29.10;85.00
36206;DHT22;22242;48.796;9.930;2023-09-08T12:09:20;28.60;85.20
36206;DHT22;22242;48.796;9.930;2023-09-08T12:11:49;29.00;88.80
36206;DHT22;22242;48.796;9.930;2023-09-08T12:14:17;28.90;83.60
36206;DHT22;22242;48.796;9.930;2023-09-08T12:16:44;28.90;83.90
36206;DHT22;22242;48.796;9.930;2023-09-08T12:19:29;29.10;87.90
36206;DHT22;22242;48.796;9.930;2023-09-08T12:21:58;29.30;84.70
36206;DHT22;22242;48.796;9.930;2023-09-08T12:24:48;29.10;89.00
36206;DHT22;22242;48.796;9.930;2023-09-08T12:27:18;28.80;91.20
36206;DHT22;22242;48.796;9.930;2023-09-08T12:29:53;28.60;87.40
36206;DHT22;22242;48.796;9.930;2023-09-08T12:32:20;28.90;85.60
36206;DHT22;22242;48.796;9.930;2023-09-08T12:34:47;28.30;90.10
36206;DHT22;22242;48.796;9.930;2023-09-08T12:37:14;28.60;90.40
36206;DHT22;22242;48.796;9.930;2023-09-08T12:39:41;28.50;91.00
36206;DHT22;22242;48.796;9.930;2023-09-08T12:42:08;28.60;87.10
36206;DHT22;22242;48.796;9.930;2023-09-08T12:44:37;28.50;86.50
36206;DHT22;22242;48.796;9.930;2023-09-08T12:47:04;28.10;86.90
36206;DHT22;22242;48.796;9.930;2023-09-08T12:49:32;27.90;87.80
36206;DHT22;22242;48.796;9.930;2023-09-08T12:51:59;28.30;89.50
36206;DHT22;22242;48.796;9.930;2023-09-08T12:54:26;28.30;91.00
36206;DHT22;22242;48.796;9.930;2023-09-08T12:56:53;28.30;90.70
36206;DHT22;22242;48.796;9.930;2023-09-08T12:59:20;27.80;90.80
36206;DHT22;22242;48.796;9.930;2023-09-08T13:01:48;28.10;90.10
36206;DHT22;22242;48.796;9.930;2023-09-08T13:04:15;28.20;92.20
36206;DHT22;22242;48.796;9.930;2023-09-08T13:06:42;28.20;92.00
36206;DHT22;22242;48.796;9.930;2023-09-08T13:09:09;28.20;92.90
36206;DHT22;22242;48.796;9.930;2023-09-08T13:11:36;28.00;92.80
36206;DHT22;22242;48.796;9.930;2023-09-08T13:14:03;27.60;92.70
36206;DHT22;22242;48.796;9.930;2023-09-08T13:16:30;27.70;94.30
36206;DHT22;22242;48.796;9.930;2023-09-08T13:18:59;27.80;93.10
36206;DHT22;22242;48.796;9.930;2023-09-08T13:21:26;28.20;94.40
36206;DHT22;22242;48.796;9.930;2023-09-08T13:23:53;28.30;90.60
36206;DHT22;22242;48.796;9.930;2023-09-08T13:26:20;28.40;91.40
36206;DHT22;22242;48.796;9.930;2023-09-08T13:28:46;28.10;90.70
36206;DHT22;22242;48.796;9.930;2023-09-08T13:31:14;28.10;91.50
36206;DHT22;22242;48.796;9.930;2023-09-08T13:33:41;27.90;91.80
36206;DHT22;22242;48.796;9.930;2023-09-08T13:36:09;28.10;90.90
36206;DHT22;22242;48.796;9.930;2023-09-08T13:38:36;28.00;90.70
36206;DHT22;22242;48.796;9.930;2023-09-08T13:41:03;28.00;91.70
36206;DHT22;22242;48.796;9.930;2023-09-08T13:43:30;28.00;90.70
36206;DHT22;22242;48.796;9.930;2023-09-08T13:45:57;27.90;92.50
36206;DHT22;22242;48.796;9.930;2023-09-08T13:48:24;27.90;90.80
36206;DHT22;22242;48.796;9.930;2023-09-08T13:50:52;28.10;90.60
36206;DHT22;22242;48.796;9.930;2023-09-08T13:53:20;27.80;93.20
36206;DHT22;22242;48.796;9.930;2023-09-08T13:55:48;27.80;94.10
36206;DHT22;22242;48.796;9.930;2023-09-08T13:58:15;27.80;91.50
36206;DHT22;22242;48.796;9.930;2023-09-08T14:00:42;27.80;91.20
36206;DHT22;22242;48.796;9.930;2023-09-08T14:03:09;27.80;91.40
36206;DHT22;22242;48.796;9.930;2023-09-08T14:05:35;27.80;91.20
36206;DHT22;22242;48.796;9.930;2023-09-08T14:08:03;27.70;91.80
36206;DHT22;22242;48.796;9.930;2023-09-08T14:10:32;27.60;91.90
36206;DHT22;22242;48.796;9.930;2023-09-08T14:12:59;27.80;91.30
36206;DHT22;22242;48.796;9.930;2023-09-08T14:15:26;27.80;92.30
36206;DHT22;22242;48.796;9.930;2023-09-08T14:17:53;27.60;91.70
36206;DHT22;22242;48.796;9.930;2023-09-08T14:20:20;27.60;92.50
36206;DHT22;22242;48.796;9.930;2023-09-08T14:22:47;27.50;94.00
36206;DHT22;22242;48.796;9.930;2023-09-08T14:25:14;27.30;93.80
36206;DHT22;22242;48.796;9.930;2023-09-08T14:27:43;27.30;92.10
36206;DHT22;22242;48.796;9.930;2023-09-08T14:30:10;27.40;92.10
36206;DHT22;22242;48.796;9.930;2023-09-08T14:32:37;27.60;91.90
36206;DHT22;22242;48.796;9.930;2023-09-08T14:35:06;27.40;92.10
36206;DHT22;22242;48.796;9.930;2023-09-08T14:37:33;27.30;92.60
36206;DHT22;22242;48.796;9.930;2023-09-08T14:40:00;27.40;92.60
36206;DHT22;22242;48.796;9.930;2023-09-08T14:42:27;27.30;93.10
36206;DHT22;22242;48.796;9.930;2023-09-08T14:44:56;27.30;92.60
36206;DHT22;22242;48.796;9.930;2023-09-08T14:47:23;27.10;93.60
36206;DHT22;22242;48.796;9.930;2023-09-08T14:49:50;27.10;93.50
36206;DHT22;22242;48.796;9.930;2023-09-08T14:52:17;27.10;93.50
36206;DHT22;22242;48.796;9.930;2023-09-08T14:54:46;27.10;95.00
36206;DHT22;22242;48.796;9.930;2023-09-08T14:57:13;27.10;96.00
36206;DHT22;22242;48.796;9.930;2023-09-08T14:59:40;27.10;94.00
36206;DHT22;22242;48.796;9.930;2023-09-08T15:02:09;27.10;93.50
36206;DHT22;22242;48.796;9.930;2023-09-08T15:04:36;27.10;94.00
36206;DHT22;22242;48.796;9.930;2023-09-08T15:07:03;27.20;93.80
36206;DHT22;22242;48.796;9.930;2023-09-08T15:09:31;27.10;93.90
36206;DHT22;22242;48.796;9.930;2023-09-08T15:11:59;27.00;95.50
36206;DHT22;22242;48.796;9.930;2023-09-08T15:14:25;26.90;96.80
36206;DHT22;22242;48.796;9.930;2023-09-08T15:16:53;27.00;95.30
36206;DHT22;22242;48.796;9.930;2023-09-08T15:19:21;26.90;95.60
36206;DHT22;22242;48.796;9.930;2023-09-08T15:21:48;26.80;95.40
36206;DHT22;22242;48.796;9.930;2023-09-08T15:24:15;26.90;96.90
36206;DHT22;22242;48.796;9.930;2023-09-08T15:26:42;27.00;95.70
36206;DHT22;22242;48.796;9.930;2023-09-08T15:29:11;27.00;96.60
36206;DHT22;22242;48.796;9.930;2023-09-08T15:31:39;27.10;95.10
36206;DHT22;22242;48.796;9.930;2023-09-08T15:34:06;27.00;95.60
36206;DHT22;22242;48.796;9.930;2023-09-08T15:36:36;27.10;95.80
36206;DHT22;22242;48.796;9.930;2023-09-08T15:39:03;26.90;95.60